Marlin, Washington
Current Conditions -  °F | °C
As of 1:52 PM on Friday 24 Oct 2014 (Local Time) from KMWH Reporting Station
Broken Clouds Broken Clouds  
Wind Chill: 56°   Ceiling: 20000
Heat Index: 56°   Visibility: 10mi
Dew Point: 43°   Wind: 5mph
Humidity: 62%   Direction: 30°NNE
Pressure: 30.05"   Gusts: NA
Location:  47.32°N, 119.01°W
Report Text: KMWH 242052Z 03004KT 10SM BKN200 13/06 A3005 RMK AO2 SLP179 T01330061 58014
Loading
Personal Weather Stations






























Interactive Weather Map
Tropical Storm Tracking
New forecast layout! Learn more

10-Day Weather Forecast

Advertisements
Track Severe Weather on mobile